Johanna Schepers — CQCE — position and weather

sailwx.info

Track history (hours):
 
Tides and Currents Weather Stations Pressure Air Temp Water Temp Dewpoint Dewpoint Depression Visibility Wind Speed Wind Dir Waves Ship Positions

Johanna Schepers

Last reported at 2018-Feb-21 23:31 UTC. Time now 2018-Feb-23 08:48 UTC.
Position N 35°59' W 005°09'.

Length 141 m; draft 5.7 m.

Type: Cargo ship. MMSI: 255805755.

Date/timePositionNaut miles runAvg speedWind from/ knotsBaromVisibWave heightAir tempDewpointWater temp
2018-Feb-21 23:31N 35°59' W 005°09'116.9
2018-Feb-21 23:28N 35°59' W 005°10'816.7
2018-Feb-21 23:00N 35°58' W 005°19'  
2018-Feb-19 17:50N 28°20' W 015°45'617.2
2018-Feb-19 17:30N 28°18' W 015°39'917.1
2018-Feb-19 17:00N 28°14' W 015°30'815.6
2018-Feb-19 16:30N 28°10' W 015°23'2 4.5
2018-Feb-19 16:00N 28°09' W 015°25'0 0.3
2018-Feb-19 15:29N 28°09' W 015°25'0 0.0
2018-Feb-19 14:59N 28°09' W 015°25'0 0.0
2018-Feb-19 14:29N 28°09' W 015°25'0 0.0
2018-Feb-19 13:59N 28°09' W 015°25'0 0.0
2018-Feb-19 13:26N 28°09' W 015°25'0 0.0
2018-Feb-19 12:59N 28°09' W 015°25'0 0.0
2018-Feb-19 12:29N 28°09' W 015°25'0 0.0
2018-Feb-19 11:56N 28°09' W 015°25'0 0.0
2018-Feb-19 11:29N 28°09' W 015°25'0 0.0
2018-Feb-19 10:59N 28°09' W 015°25'0 0.0
2018-Feb-19 10:17N 28°09' W 015°25'0 0.0
2018-Feb-19 09:50N 28°09' W 015°25'0 0.0
2018-Feb-19 09:29N 28°09' W 015°25'0 0.1
2018-Feb-19 09:00N 28°09' W 015°25'2 5.0
2018-Feb-19 08:31N 28°08' W 015°22'816.6
2018-Feb-19 08:00N 28°14' W 015°16'917.4
2018-Feb-19 07:31N 28°20' W 015°09'917.4
2018-Feb-19 07:00N 28°27' W 015°02'  
2018-Feb-16 23:41N 37°34' W 000°34'315.6
2018-Feb-16 23:30N 37°37' W 000°33'19 0.7
2018-Feb-15 20:00N 37°56' W 000°26'1015.1
2018-Feb-15 19:19N 37°45' W 000°28'515.4
2018-Feb-15 18:59N 37°40' W 000°29'815.1
2018-Feb-15 18:27N 37°33' W 000°32'24614.6
2018-Feb-15 01:36N 35°59' W 005°16'116.8
2018-Feb-15 01:30N 35°58' W 005°17'70715.2
2018-Feb-13 02:59N 28°31' W 016°06'715.2
2018-Feb-13 02:30N 28°28' W 016°13'1 2.2
2018-Feb-13 02:00N 28°29' W 016°13'0 0.0
2018-Feb-13 01:30N 28°29' W 016°13'0 0.0
2018-Feb-13 01:00N 28°29' W 016°13'0 0.0
2018-Feb-13 00:30N 28°29' W 016°13'0 0.0
2018-Feb-13 00:00N 28°29' W 016°13'0 0.0
2018-Feb-12 23:30N 28°29' W 016°13'0 0.0
2018-Feb-12 23:00N 28°29' W 016°13'0 0.0
2018-Feb-12 22:30N 28°29' W 016°13'0 0.0
2018-Feb-12 22:00N 28°29' W 016°13'0 0.0
2018-Feb-12 21:30N 28°29' W 016°13'0 0.0
2018-Feb-12 21:00N 28°29' W 016°13'0 0.0
2018-Feb-12 20:30N 28°29' W 016°13'0 0.0
2018-Feb-12 20:00N 28°29' W 016°13'0 0.0
2018-Feb-12 19:30N 28°29' W 016°13'1 2.6
2018-Feb-12 19:00N 28°28' W 016°13'611.7
2018-Feb-12 18:30N 28°26' W 016°07'1814.6
2018-Feb-12 17:15N 28°20' W 015°47'314.4
2018-Feb-12 17:00N 28°19' W 015°43'714.5
2018-Feb-12 16:30N 28°16' W 015°36'714.6
2018-Feb-12 16:00N 28°14' W 015°28'713.5
2018-Feb-12 15:30N 28°09' W 015°22'2 4.5
2018-Feb-12 15:00N 28°09' W 015°25'0 0.3
2018-Feb-12 14:28N 28°09' W 015°25'0 0.0
2018-Feb-12 13:58N 28°09' W 015°25'0 0.0
2018-Feb-12 13:28N 28°09' W 015°25'0 0.0
2018-Feb-12 12:58N 28°09' W 015°25'0 0.0
2018-Feb-12 12:16N 28°09' W 015°25'0 0.0
2018-Feb-12 11:49N 28°09' W 015°25'0 0.0
2018-Feb-12 11:22N 28°09' W 015°25'0 0.0
2018-Feb-12 10:52N 28°09' W 015°25'0 0.0
2018-Feb-12 10:22N 28°09' W 015°25'0 0.0
2018-Feb-12 09:52N 28°09' W 015°25'0 0.0
2018-Feb-12 09:22N 28°09' W 015°25'0 0.0
2018-Feb-12 08:59N 28°09' W 015°25'2 4.3
2018-Feb-12 08:30N 28°07' W 015°23'510.7
2018-Feb-12 08:00N 28°10' W 015°19'917.1
2018-Feb-12 07:30N 28°17' W 015°12'917.3
2018-Feb-12 07:00N 28°23' W 015°05'3917.3
2018-Feb-12 04:44N 28°52' W 014°36'417.3
2018-Feb-12 04:30N 28°55' W 014°32'917.5
2018-Feb-12 04:01N 29°02' W 014°26'917.5
2018-Feb-12 03:31N 29°08' W 014°19'917.1
2018-Feb-12 03:01N 29°14' W 014°12'917.3
2018-Feb-12 02:30N 29°20' W 014°05'917.3
2018-Feb-12 02:01N 29°26' W 013°58'  
Track history (hours):
 
Tides and Currents Weather Stations Pressure Air Temp Water Temp Dewpoint Dewpoint Depression Visibility Wind Speed Wind Dir Waves Ship Positions

Johanna Schepers

Last reported at 2018-Feb-21 23:31 UTC. Time now 2018-Feb-23 08:48 UTC.
Position N 35°59' W 005°09'.

Length 141 m; draft 5.7 m.

Type: Cargo ship. MMSI: 255805755.

Date/timePositionNaut miles runAvg speedWind from/ knotsBaromVisibWave heightAir tempDewpointWater temp
2018-Feb-21 23:31N 35°59' W 005°09'116.9
2018-Feb-21 23:28N 35°59' W 005°10'816.7
2018-Feb-21 23:00N 35°58' W 005°19'  
2018-Feb-19 17:50N 28°20' W 015°45'617.2
2018-Feb-19 17:30N 28°18' W 015°39'917.1
2018-Feb-19 17:00N 28°14' W 015°30'815.6
2018-Feb-19 16:30N 28°10' W 015°23'2 4.5
2018-Feb-19 16:00N 28°09' W 015°25'0 0.3
2018-Feb-19 15:29N 28°09' W 015°25'0 0.0
2018-Feb-19 14:59N 28°09' W 015°25'0 0.0
2018-Feb-19 14:29N 28°09' W 015°25'0 0.0
2018-Feb-19 13:59N 28°09' W 015°25'0 0.0
2018-Feb-19 13:26N 28°09' W 015°25'0 0.0
2018-Feb-19 12:59N 28°09' W 015°25'0 0.0
2018-Feb-19 12:29N 28°09' W 015°25'0 0.0
2018-Feb-19 11:56N 28°09' W 015°25'0 0.0
2018-Feb-19 11:29N 28°09' W 015°25'0 0.0
2018-Feb-19 10:59N 28°09' W 015°25'0 0.0
2018-Feb-19 10:17N 28°09' W 015°25'0 0.0
2018-Feb-19 09:50N 28°09' W 015°25'0 0.0
2018-Feb-19 09:29N 28°09' W 015°25'0 0.1
2018-Feb-19 09:00N 28°09' W 015°25'2 5.0
2018-Feb-19 08:31N 28°08' W 015°22'816.6
2018-Feb-19 08:00N 28°14' W 015°16'917.4
2018-Feb-19 07:31N 28°20' W 015°09'917.4
2018-Feb-19 07:00N 28°27' W 015°02'  
2018-Feb-16 23:41N 37°34' W 000°34'315.6
2018-Feb-16 23:30N 37°37' W 000°33'19 0.7
2018-Feb-15 20:00N 37°56' W 000°26'1015.1
2018-Feb-15 19:19N 37°45' W 000°28'515.4
2018-Feb-15 18:59N 37°40' W 000°29'815.1
2018-Feb-15 18:27N 37°33' W 000°32'24614.6
2018-Feb-15 01:36N 35°59' W 005°16'116.8
2018-Feb-15 01:30N 35°58' W 005°17'70715.2
2018-Feb-13 02:59N 28°31' W 016°06'715.2
2018-Feb-13 02:30N 28°28' W 016°13'1 2.2
2018-Feb-13 02:00N 28°29' W 016°13'0 0.0
2018-Feb-13 01:30N 28°29' W 016°13'0 0.0
2018-Feb-13 01:00N 28°29' W 016°13'0 0.0
2018-Feb-13 00:30N 28°29' W 016°13'0 0.0
2018-Feb-13 00:00N 28°29' W 016°13'0 0.0
2018-Feb-12 23:30N 28°29' W 016°13'0 0.0
2018-Feb-12 23:00N 28°29' W 016°13'0 0.0
2018-Feb-12 22:30N 28°29' W 016°13'0 0.0
2018-Feb-12 22:00N 28°29' W 016°13'0 0.0
2018-Feb-12 21:30N 28°29' W 016°13'0 0.0
2018-Feb-12 21:00N 28°29' W 016°13'0 0.0
2018-Feb-12 20:30N 28°29' W 016°13'0 0.0
2018-Feb-12 20:00N 28°29' W 016°13'0 0.0
2018-Feb-12 19:30N 28°29' W 016°13'1 2.6
2018-Feb-12 19:00N 28°28' W 016°13'611.7
2018-Feb-12 18:30N 28°26' W 016°07'1814.6
2018-Feb-12 17:15N 28°20' W 015°47'314.4
2018-Feb-12 17:00N 28°19' W 015°43'714.5
2018-Feb-12 16:30N 28°16' W 015°36'714.6
2018-Feb-12 16:00N 28°14' W 015°28'713.5
2018-Feb-12 15:30N 28°09' W 015°22'2 4.5
2018-Feb-12 15:00N 28°09' W 015°25'0 0.3
2018-Feb-12 14:28N 28°09' W 015°25'0 0.0
2018-Feb-12 13:58N 28°09' W 015°25'0 0.0
2018-Feb-12 13:28N 28°09' W 015°25'0 0.0
2018-Feb-12 12:58N 28°09' W 015°25'0 0.0
2018-Feb-12 12:16N 28°09' W 015°25'0 0.0
2018-Feb-12 11:49N 28°09' W 015°25'0 0.0
2018-Feb-12 11:22N 28°09' W 015°25'0 0.0
2018-Feb-12 10:52N 28°09' W 015°25'0 0.0
2018-Feb-12 10:22N 28°09' W 015°25'0 0.0
2018-Feb-12 09:52N 28°09' W 015°25'0 0.0
2018-Feb-12 09:22N 28°09' W 015°25'0 0.0
2018-Feb-12 08:59N 28°09' W 015°25'2 4.3
2018-Feb-12 08:30N 28°07' W 015°23'510.7
2018-Feb-12 08:00N 28°10' W 015°19'917.1
2018-Feb-12 07:30N 28°17' W 015°12'917.3
2018-Feb-12 07:00N 28°23' W 015°05'3917.3
2018-Feb-12 04:44N 28°52' W 014°36'417.3
2018-Feb-12 04:30N 28°55' W 014°32'917.5
2018-Feb-12 04:01N 29°02' W 014°26'917.5
2018-Feb-12 03:31N 29°08' W 014°19'917.1
2018-Feb-12 03:01N 29°14' W 014°12'917.3
2018-Feb-12 02:30N 29°20' W 014°05'917.3
2018-Feb-12 02:01N 29°26' W 013°58'  

Dump ship's entire track history